createdAt,value
2018-09-17T16:14:08.429Z,61.00
2018-09-17T16:16:36.883Z,60.90
2018-09-17T16:19:05.553Z,61.00
2018-09-17T16:21:34.011Z,61.60
2018-09-17T16:24:02.489Z,61.30
2018-09-17T16:26:34.094Z,62.80
2018-09-17T16:29:02.654Z,64.90
2018-09-17T16:31:32.137Z,65.70
2018-09-17T16:34:00.670Z,64.90
2018-09-17T16:36:29.254Z,67.50
2018-09-17T16:38:57.728Z,74.00
2018-09-17T16:41:26.173Z,76.10
2018-09-17T16:43:54.822Z,78.40
2018-09-17T16:46:23.382Z,78.80
2018-09-17T16:48:52.951Z,79.60
2018-09-17T16:51:21.417Z,81.20
2018-09-17T16:53:49.958Z,81.40
2018-09-17T16:56:19.051Z,82.20
2018-09-17T16:58:47.654Z,82.50
2018-09-17T17:01:16.091Z,80.60
2018-09-17T17:03:44.625Z,80.20
2018-09-17T17:06:13.106Z,82.50
2018-09-17T17:08:41.571Z,83.40
2018-09-17T17:11:10.037Z,81.30
2018-09-17T17:13:38.577Z,78.00
2018-09-17T17:16:07.137Z,80.40
2018-09-17T17:18:35.610Z,81.60
2018-09-17T17:21:04.036Z,82.10
2018-09-17T17:23:32.495Z,85.30
2018-09-17T17:26:00.929Z,85.90
2018-09-17T17:28:30.369Z,86.90
2018-09-17T17:30:58.814Z,85.00
2018-09-17T17:33:28.170Z,82.50
2018-09-17T17:35:56.630Z,81.60
2018-09-17T17:38:25.109Z,82.90
2018-09-17T17:40:53.549Z,83.70
2018-09-17T17:43:22.217Z,86.70
2018-09-17T17:45:50.681Z,87.50
2018-09-17T17:48:19.134Z,87.00
2018-09-17T17:50:47.600Z,86.90
2018-09-17T17:53:16.033Z,88.00
2018-09-17T17:55:44.557Z,88.70
2018-09-17T17:58:13.119Z,88.40
2018-09-17T18:00:41.521Z,88.70
2018-09-17T18:03:10.001Z,90.00
2018-09-17T18:05:38.442Z,89.90
2018-09-17T18:08:06.905Z,89.40
2018-09-17T18:10:35.456Z,88.80
2018-09-17T18:13:04.053Z,89.70
2018-09-17T18:15:32.503Z,90.10
2018-09-17T18:18:00.981Z,88.70
2018-09-17T18:20:29.454Z,90.10
2018-09-17T18:22:57.937Z,90.60
2018-09-17T18:25:26.401Z,90.70
2018-09-17T18:27:54.850Z,90.30
2018-09-17T18:30:23.333Z,91.00
2018-09-17T18:32:51.853Z,91.60
2018-09-17T18:35:20.270Z,91.50
2018-09-17T18:37:52.410Z,91.80
2018-09-17T18:40:21.032Z,92.40
2018-09-17T18:42:49.544Z,92.80
2018-09-17T18:45:18.089Z,93.10
2018-09-17T18:47:46.483Z,93.60
2018-09-17T18:50:15.020Z,93.90
2018-09-17T18:52:43.476Z,94.20
2018-09-17T18:55:11.966Z,94.50
2018-09-17T18:57:40.425Z,93.60
2018-09-17T19:00:09.524Z,93.60
2018-09-17T19:02:37.974Z,93.50
2018-09-17T19:05:06.557Z,94.20
2018-09-17T19:07:35.030Z,94.40
2018-09-17T19:10:03.606Z,93.70
2018-09-17T19:12:32.117Z,94.50
2018-09-17T19:15:05.804Z,95.30
2018-09-17T19:17:39.851Z,95.50
2018-09-17T19:20:09.628Z,95.60
2018-09-17T19:22:43.334Z,96.20
2018-09-17T19:25:14.174Z,96.40
2018-09-17T19:27:47.915Z,96.50
2018-09-17T19:30:16.713Z,96.40
2018-09-17T19:32:45.365Z,96.70
2018-09-17T19:35:13.844Z,96.90
2018-09-17T19:37:47.620Z,97.10
2018-09-17T19:40:17.657Z,97.30
2018-09-17T19:42:47.969Z,97.70
2018-09-17T19:45:22.713Z,97.80
2018-09-17T19:47:52.072Z,97.80
2018-09-17T19:50:26.019Z,97.90
2018-09-17T19:52:54.930Z,98.00
2018-09-17T19:55:23.417Z,97.70
2018-09-17T19:57:57.096Z,97.20
2018-09-17T20:00:25.617Z,97.00
2018-09-17T20:02:54.052Z,97.20
2018-09-17T20:05:27.861Z,97.20
2018-09-17T20:07:56.428Z,96.80
2018-09-17T20:10:24.867Z,96.80
2018-09-17T20:12:53.517Z,96.40
2018-09-17T20:15:21.988Z,96.30
2018-09-17T20:17:50.421Z,95.70
2018-09-17T20:20:19.349Z,95.30
2018-09-17T20:22:47.817Z,95.30
2018-09-17T20:25:16.287Z,95.00
2018-09-17T20:27:44.738Z,94.80
2018-09-17T20:30:13.267Z,95.10
2018-09-17T20:32:41.770Z,95.30
2018-09-17T20:35:10.238Z,95.40
2018-09-17T20:37:38.686Z,95.50
2018-09-17T20:40:07.274Z,95.60
2018-09-17T20:42:35.749Z,94.80
2018-09-17T20:45:04.276Z,95.10
2018-09-17T20:47:32.741Z,94.80
2018-09-17T20:50:01.247Z,94.90
2018-09-17T20:52:29.689Z,94.60
2018-09-17T20:54:58.230Z,95.20
2018-09-17T20:57:26.714Z,96.00
2018-09-17T20:59:55.185Z,95.50
2018-09-17T21:02:23.979Z,95.50
2018-09-17T21:04:52.549Z,95.70
2018-09-17T21:07:21.109Z,95.80
2018-09-17T21:09:49.490Z,96.30
2018-09-17T21:12:18.156Z,96.50
2018-09-17T21:14:46.622Z,96.60
2018-09-17T21:17:15.086Z,96.10
2018-09-17T21:19:43.533Z,96.30
2018-09-17T21:22:12.068Z,96.40
2018-09-17T21:24:40.587Z,97.10
2018-09-17T21:27:08.999Z,97.30
2018-09-17T21:29:37.501Z,97.50
2018-09-17T21:32:06.632Z,97.70
2018-09-17T21:34:35.147Z,97.50
2018-09-17T21:37:03.637Z,97.60
2018-09-17T21:39:32.816Z,97.40
2018-09-17T21:42:01.289Z,96.10
2018-09-17T21:44:29.748Z,96.10
2018-09-17T21:46:58.217Z,96.60
2018-09-17T21:49:26.765Z,96.80
2018-09-17T21:51:55.214Z,97.30
2018-09-17T21:54:23.691Z,97.50
2018-09-17T21:56:52.135Z,97.50
2018-09-17T21:59:21.272Z,97.50
2018-09-17T22:01:49.700Z,97.40
2018-09-17T22:04:18.175Z,97.10
2018-09-17T22:06:46.624Z,97.70
2018-09-17T22:09:15.115Z,97.70
2018-09-17T22:11:43.636Z,97.80
2018-09-17T22:14:12.055Z,98.10
2018-09-17T22:16:40.588Z,97.80
2018-09-17T22:19:09.150Z,97.80
2018-09-17T22:21:37.591Z,97.70
2018-09-17T22:24:06.068Z,97.80
2018-09-17T22:26:34.538Z,98.00
2018-09-17T22:29:03.050Z,98.00
2018-09-17T22:31:31.482Z,97.90
2018-09-17T22:34:00.000Z,98.30
2018-09-17T22:36:28.414Z,98.70
2018-09-17T22:38:56.850Z,98.30
2018-09-17T22:41:25.350Z,97.90
2018-09-17T22:43:53.789Z,98.30
2018-09-17T22:46:22.257Z,98.70
2018-09-17T22:48:50.680Z,98.70
2018-09-17T22:51:19.101Z,98.50
2018-09-17T22:53:47.609Z,98.80
2018-09-17T22:56:16.049Z,98.70
2018-09-17T22:58:44.514Z,98.90
2018-09-17T23:01:12.971Z,99.00
2018-09-17T23:03:41.452Z,99.20
2018-09-17T23:06:09.895Z,99.30
2018-09-17T23:08:38.357Z,98.80
2018-09-17T23:11:07.157Z,98.90
2018-09-17T23:13:35.629Z,99.00
2018-09-17T23:16:04.103Z,99.00
2018-09-17T23:18:32.581Z,98.80
2018-09-17T23:21:01.047Z,99.10
2018-09-17T23:23:29.479Z,99.10
2018-09-17T23:25:57.942Z,99.00
2018-09-17T23:28:26.390Z,98.80
2018-09-17T23:30:54.874Z,98.80
2018-09-17T23:33:23.336Z,98.80
2018-09-17T23:35:51.768Z,98.60
2018-09-17T23:38:20.216Z,98.60
2018-09-17T23:40:48.721Z,98.80
2018-09-17T23:43:17.185Z,99.10
2018-09-17T23:45:45.618Z,98.90
2018-09-17T23:48:14.074Z,99.20
2018-09-17T23:50:42.505Z,99.30
2018-09-17T23:53:10.982Z,99.10
2018-09-17T23:55:39.464Z,99.10
2018-09-17T23:58:07.906Z,99.70
